Date,TemperatureHighF,TemperatureAvgF,TemperatureLowF,DewpointHighF,DewpointAvgF,DewpointLowF,HumidityHigh,HumidityAvg,HumidityLow,PressureMaxIn,PressureMinIn,WindSpeedMaxMPH,WindSpeedAvgMPH,GustSpeedMaxMPH,PrecipitationSumIn
2013-1-1,45.5,40.5,36.0,45.4,38.8,29.4,100,94,71,30.12,29.97,10,0,13,0.33
2013-1-2,39.2,36.6,34.9,37.9,32.5,30.2,96,85,75,30.20,30.03,6,0,11,0.21
2013-1-3,49.1,37.0,31.3,31.9,26.7,18.7,84,68,37,30.37,30.17,7,0,9,0.00
2013-1-4,51.0,35.9,27.5,26.5,21.7,19.5,78,58,33,30.44,30.35,8,0,13,0.00
2013-1-5,49.2,38.0,27.5,34.5,23.5,19.0,87,58,31,30.45,30.26,7,0,8,0.03
2013-1-6,45.5,39.9,36.3,36.9,34.2,26.7,95,81,62,30.32,30.14,7,1,10,0.02
2013-1-7,53.2,40.6,29.7,31.8,26.8,23.1,79,59,37,30.44,30.30,10,1,13,0.00
2013-1-8,53.9,45.4,36.0,33.9,30.1,26.8,69,56,36,30.42,30.28,8,0,11,0.00
2013-1-9,49.8,46.7,41.6,47.0,39.5,30.8,97,77,51,30.47,30.31,6,0,9,0.18
2013-1-10,61.8,55.0,48.6,52.0,49.1,46.4,96,81,67,30.45,30.15,7,1,10,0.00
2013-1-11,66.9,61.2,55.0,61.5,56.1,49.3,96,84,68,30.13,30.01,11,1,16,0.04
2013-1-12,72.0,64.9,61.3,63.1,60.8,54.7,99,87,69,30.10,29.97,8,0,10,0.02
2013-1-13,68.8,64.0,59.8,60.1,56.3,53.2,99,77,62,30.00,29.90,14,1,17,0.95
2013-1-14,60.1,41.9,35.3,59.8,40.7,34.2,99,96,93,30.32,30.00,9,1,13,1.01
2013-1-15,42.2,39.8,37.5,41.8,39.3,36.7,99,98,97,30.22,29.99,8,1,11,1.44
2013-1-16,46.5,41.4,39.2,46.0,40.9,37.6,100,98,94,30.08,29.92,7,0,11,1.05
2013-1-17,40.9,35.4,30.0,40.4,33.5,28.0,98,93,78,30.36,29.96,9,1,15,0.20
2013-1-18,52.0,35.5,26.6,35.9,29.1,25.1,96,79,50,30.56,30.37,4,0,8,0.43
2013-1-19,51.1,37.0,24.7,36.4,28.3,23.5,99,74,40,30.46,30.18,8,1,14,0.13
2013-1-20,61.6,47.0,36.9,35.1,28.7,19.5,71,50,32,30.20,30.11,9,1,11,0.00
2013-1-21,53.8,39.2,27.8,24.4,15.5,5.4,61,39,21,30.22,30.10,8,1,17,0.00
2013-1-22,40.1,28.9,19.5,9.8,-0.0,-8.1,52,30,16,30.39,30.21,8,1,11,0.00
2013-1-23,47.4,35.5,23.5,26.1,10.6,-2.7,55,36,21,30.39,30.12,9,1,15,0.00
2013-1-24,41.2,33.5,26.0,30.6,10.3,-2.0,68,40,22,30.46,30.12,15,2,18,0.00
2013-1-25,33.5,29.0,24.8,32.5,21.9,1.9,96,78,35,30.40,30.12,6,0,8,0.00
2013-1-26,52.2,36.9,29.0,37.5,30.9,25.2,96,81,50,30.39,30.21,4,0,8,0.23
2013-1-27,51.7,37.8,26.4,36.7,29.0,23.8,91,72,46,30.46,30.32,6,0,9,0.00
2013-1-28,55.1,47.6,39.9,49.3,40.7,34.6,85,77,57,30.37,30.21,9,1,13,0.00
2013-1-29,67.6,56.1,45.7,54.5,49.5,44.0,98,80,60,30.22,29.84,6,0,9,0.00
2013-1-30,68.8,56.4,40.9,60.0,51.8,34.2,100,85,68,29.83,29.47,18,2,24,0.92
2013-1-31,43.1,37.2,32.2,33.7,23.0,19.3,82,57,39,30.05,29.66,18,4,20,0.16